Time;durP1;ratioP1;P1;durP2;ratioP2;P2;SDS_P1;SDS_P2;PMS_P1;PMS_P2;Temp;Humidity;BMP_temperature;BMP_pressure;BME280_temperature;BME280_humidity;BME280_pressure;Samples;Min_cycle;Max_cycle;Signal;HPM_P1;HPM_P2
2022/04/28 00:03:34;;;;;;;11.85;5.53;;;6.10;99.90;;;;;;7311369;32;20613;-59
2022/04/28 00:07:37;;;;;;;8.65;5.53;;;6.00;99.90;;;;;;7302222;32;20125;-58
2022/04/28 00:11:38;;;;;;;9.27;5.62;;;5.90;99.90;;;;;;7304515;32;20133;-59
2022/04/28 00:15:41;;;;;;;10.95;6.50;;;5.90;99.90;;;;;;7314242;32;20226;-59
2022/04/28 00:19:42;;;;;;;8.15;4.93;;;5.70;99.90;;;;;;7315289;32;20210;-58
2022/04/28 00:23:44;;;;;;;7.47;5.10;;;5.70;99.90;;;;;;7315666;32;20158;-59
2022/04/28 00:27:46;;;;;;;7.70;5.20;;;5.60;99.90;;;;;;7318201;32;20246;-59
2022/04/28 00:31:48;;;;;;;7.47;5.53;;;5.60;99.90;;;;;;7316883;32;20124;-59
2022/04/28 00:35:50;;;;;;;9.13;5.57;;;5.60;99.90;;;;;;7318602;32;20221;-59
2022/04/28 00:39:52;;;;;;;8.10;5.70;;;5.60;99.90;;;;;;7318784;32;20108;-59
2022/04/28 00:43:54;;;;;;;8.77;6.00;;;5.70;99.90;;;;;;7314109;32;20122;-59
2022/04/28 00:52:25;;;;;;;14.05;6.37;;;5.60;99.90;;;;;;7289099;32;20521;-58
2022/04/28 00:56:28;;;;;;;7.60;6.00;;;5.50;99.90;;;;;;7314046;32;20166;-58
2022/04/28 01:00:29;;;;;;;9.57;6.15;;;5.60;99.90;;;;;;7316750;32;20366;-58
2022/04/28 01:04:31;;;;;;;13.50;7.10;;;5.60;99.90;;;;;;7312204;32;20562;-59
2022/04/28 01:08:34;;;;;;;10.00;6.72;;;5.70;99.90;;;;;;7307264;32;20942;-58
2022/04/28 01:12:36;;;;;;;14.50;8.15;;;5.70;99.90;;;;;;7311923;32;20104;-60
2022/04/28 01:16:37;;;;;;;15.77;8.18;;;5.70;99.90;;;;;;7310921;32;20489;-59
2022/04/28 01:20:40;;;;;;;16.40;8.23;;;5.90;99.90;;;;;;7309016;32;20485;-59
2022/04/28 01:24:41;;;;;;;14.60;8.13;;;5.90;99.90;;;;;;7313126;32;20126;-59
2022/04/28 01:28:43;;;;;;;17.20;7.40;;;5.90;99.90;;;;;;7314061;32;20207;-58
2022/04/28 01:32:45;;;;;;;13.20;7.68;;;5.90;99.90;;;;;;7316440;32;20119;-59
2022/04/28 01:36:47;;;;;;;17.23;8.38;;;5.90;99.90;;;;;;7309285;32;20111;-59
2022/04/28 01:40:49;;;;;;;15.07;8.43;;;6.00;99.90;;;;;;7314293;32;20218;-58
2022/04/28 01:44:51;;;;;;;12.70;8.70;;;6.10;99.90;;;;;;7314363;32;20229;-59
2022/04/28 01:48:52;;;;;;;13.32;8.93;;;6.10;99.90;;;;;;7312739;32;20415;-58
2022/04/28 01:57:14;;;;;;;17.02;10.07;;;6.30;99.90;;;;;;7310179;32;20571;-59
2022/04/28 02:01:15;;;;;;;17.62;10.25;;;6.30;99.90;;;;;;7316084;32;20131;-60
2022/04/28 02:05:18;;;;;;;16.12;9.88;;;6.40;99.90;;;;;;7302538;32;21080;-59
2022/04/28 02:09:19;;;;;;;15.73;10.02;;;6.40;99.90;;;;;;7314827;32;20211;-59
2022/04/28 02:13:21;;;;;;;19.95;10.40;;;6.40;99.90;;;;;;7311187;32;20115;-59
2022/04/28 02:17:34;;;;;;;19.67;9.35;;;6.40;99.90;;;;;;7298674;32;20278;-59
2022/04/28 02:21:36;;;;;;;14.73;10.13;;;6.50;99.90;;;;;;7311381;32;20571;-59
2022/04/28 02:25:38;;;;;;;21.48;10.10;;;6.40;99.90;;;;;;7312909;32;20104;-59
2022/04/28 02:29:39;;;;;;;12.60;9.10;;;6.40;99.90;;;;;;7305187;32;20138;-59
2022/04/28 02:33:41;;;;;;;17.58;10.15;;;6.40;99.90;;;;;;7305420;32;20112;-59
2022/04/28 02:37:43;;;;;;;16.92;10.57;;;6.30;99.90;;;;;;7307128;32;20260;-59
2022/04/28 02:41:46;;;;;;;18.58;10.75;;;6.30;99.90;;;;;;7312429;32;20112;-59
2022/04/28 02:45:49;;;;;;;20.95;11.48;;;6.30;99.90;;;;;;7306997;32;20142;-59
2022/04/28 02:49:50;;;;;;;17.58;11.40;;;6.20;99.90;;;;;;7309201;32;20510;-59
2022/04/28 02:53:52;;;;;;;17.70;11.43;;;6.20;99.90;;;;;;7313569;32;20137;-59
2022/04/28 02:57:54;;;;;;;17.80;11.00;;;6.10;99.90;;;;;;7314826;32;20621;-59
2022/04/28 03:02:01;;;;;;;20.48;11.02;;;6.20;99.90;;;;;;7308073;32;20193;-59
2022/04/28 03:14:54;;;;;;;19.35;11.70;;;6.00;99.90;;;;;;7307515;32;20511;-58
2022/04/28 03:18:56;;;;;;;15.90;11.00;;;6.00;99.90;;;;;;7314458;32;20151;-59
2022/04/28 03:22:58;;;;;;;21.90;12.25;;;5.90;99.90;;;;;;7317749;32;20553;-58
2022/04/28 03:27:00;;;;;;;20.00;11.50;;;5.90;99.90;;;;;;7317157;32;20501;-59
2022/04/28 03:31:03;;;;;;;21.60;11.18;;;6.00;99.90;;;;;;7314054;32;20157;-58
2022/04/28 03:35:06;;;;;;;22.58;12.25;;;5.90;99.90;;;;;;7318522;32;20127;-58
2022/04/28 03:39:07;;;;;;;18.60;11.68;;;5.90;99.90;;;;;;7314168;32;20349;-60
2022/04/28 03:43:09;;;;;;;18.58;11.65;;;5.80;99.90;;;;;;7311263;32;20187;-58
2022/04/28 03:47:11;;;;;;;20.25;12.90;;;5.70;99.90;;;;;;7317124;32;20624;-58
2022/04/28 03:51:13;;;;;;;22.90;12.77;;;5.70;99.90;;;;;;7314522;32;20210;-58
2022/04/28 03:55:14;;;;;;;21.50;13.20;;;5.80;99.90;;;;;;7316557;32;20112;-58
2022/04/28 03:59:16;;;;;;;22.20;12.57;;;5.80;99.90;;;;;;7313143;32;20135;-58
2022/04/28 04:03:19;;;;;;;18.37;12.30;;;5.80;99.90;;;;;;7319602;32;20120;-58
2022/04/28 04:07:21;;;;;;;21.83;14.07;;;5.80;99.90;;;;;;7315847;32;20695;-58
2022/04/28 04:11:23;;;;;;;23.52;13.98;;;5.80;99.90;;;;;;7317000;32;20331;-59
2022/04/28 04:15:25;;;;;;;21.10;13.57;;;5.80;99.90;;;;;;7314658;32;20195;-58
2022/04/28 04:19:27;;;;;;;22.13;14.23;;;5.70;99.90;;;;;;7316660;32;20277;-59
2022/04/28 04:23:28;;;;;;;21.35;13.30;;;5.80;99.90;;;;;;7317092;32;20199;-59
2022/04/28 04:27:30;;;;;;;20.37;12.98;;;5.80;99.90;;;;;;7311915;32;20557;-60
2022/04/28 04:35:53;;;;;;;20.48;13.23;;;5.90;99.90;;;;;;7315865;32;20165;-58
2022/04/28 04:39:55;;;;;;;20.17;13.85;;;5.90;99.90;;;;;;7315548;32;20510;-58
2022/04/28 04:43:57;;;;;;;20.60;13.25;;;5.80;99.90;;;;;;7311571;32;20239;-57
2022/04/28 04:47:58;;;;;;;22.62;13.95;;;5.80;99.90;;;;;;7313545;32;20171;-60
2022/04/28 04:52:02;;;;;;;19.67;12.88;;;5.80;99.90;;;;;;7316488;32;20138;-60
2022/04/28 04:56:03;;;;;;;20.62;12.80;;;5.90;99.90;;;;;;7295837;32;20198;-59
2022/04/28 05:00:06;;;;;;;20.70;12.63;;;6.00;99.90;;;;;;7312491;32;20135;-61
2022/04/28 05:04:08;;;;;;;18.80;12.55;;;6.20;99.90;;;;;;7316323;32;20093;-60
2022/04/28 05:08:10;;;;;;;21.67;13.40;;;6.20;99.90;;;;;;7311813;32;20499;-63
2022/04/28 05:12:11;;;;;;;23.48;13.90;;;6.20;99.90;;;;;;7313004;32;20529;-60
2022/04/28 05:16:14;;;;;;;21.23;13.75;;;6.20;99.90;;;;;;7311229;32;20203;-62
2022/04/28 05:20:16;;;;;;;26.95;14.43;;;6.20;99.90;;;;;;7315186;32;20491;-59
2022/04/28 05:24:17;;;;;;;27.40;13.80;;;6.20;99.90;;;;;;7314304;32;20122;-62
2022/04/28 05:28:19;;;;;;;30.15;18.87;;;6.20;99.90;;;;;;7317723;32;20138;-59
2022/04/28 05:32:20;;;;;;;22.42;13.85;;;6.20;99.90;;;;;;7312107;32;20476;-62
2022/04/28 05:36:24;;;;;;;21.40;13.82;;;6.30;99.90;;;;;;7310368;32;20241;-62
2022/04/28 05:40:26;;;;;;;20.52;14.10;;;6.40;99.90;;;;;;7301015;32;20523;-63
2022/04/28 05:48:49;;;;;;;22.00;14.95;;;6.60;99.90;;;;;;7307176;32;20122;-62
2022/04/28 05:52:51;;;;;;;21.00;14.25;;;6.70;99.90;;;;;;7311377;32;20214;-62
2022/04/28 05:56:52;;;;;;;22.75;15.38;;;6.70;99.90;;;;;;7312832;32;20127;-60
2022/04/28 06:00:54;;;;;;;27.13;16.25;;;6.90;99.90;;;;;;7314141;32;20880;-60
2022/04/28 06:04:56;;;;;;;20.05;14.15;;;7.10;99.90;;;;;;7314577;32;20340;-61
2022/04/28 06:08:58;;;;;;;25.02;14.77;;;7.20;99.90;;;;;;7314697;32;20206;-61
2022/04/28 06:12:59;;;;;;;20.65;14.73;;;7.30;99.90;;;;;;7313464;32;20126;-62
2022/04/28 06:17:01;;;;;;;20.95;14.30;;;7.40;99.90;;;;;;7314186;32;20125;-60
2022/04/28 06:21:03;;;;;;;20.83;14.40;;;7.60;99.90;;;;;;7298968;32;20255;-60
2022/04/28 06:25:05;;;;;;;21.27;14.02;;;7.70;99.90;;;;;;7310744;32;20122;-60
2022/04/28 06:29:07;;;;;;;23.80;13.32;;;7.80;99.90;;;;;;7310181;32;20515;-62
2022/04/28 06:33:08;;;;;;;19.45;13.93;;;7.90;99.90;;;;;;7314901;32;20108;-61
2022/04/28 06:37:10;;;;;;;20.83;14.15;;;8.10;99.90;;;;;;7311171;32;20125;-60
2022/04/28 06:41:12;;;;;;;20.90;14.18;;;8.20;99.90;;;;;;7318628;32;20127;-61
2022/04/28 06:45:13;;;;;;;22.73;13.68;;;8.20;99.90;;;;;;7317858;32;20212;-61
2022/04/28 06:49:15;;;;;;;20.50;13.10;;;8.40;99.90;;;;;;7317262;32;20103;-61
2022/04/28 06:53:17;;;;;;;18.23;13.65;;;8.50;99.90;;;;;;7319305;32;20122;-61
2022/04/28 06:57:19;;;;;;;18.98;13.95;;;8.80;99.90;;;;;;7319404;32;20104;-63
2022/04/28 07:01:21;;;;;;;17.25;13.07;;;9.20;99.90;;;;;;7317150;32;20120;-62
2022/04/28 07:05:23;;;;;;;21.08;13.32;;;9.80;99.90;;;;;;7324665;32;20270;-62
2022/04/28 07:09:24;;;;;;;17.45;12.23;;;10.20;99.90;;;;;;7319663;32;20217;-64
2022/04/28 07:13:45;;;;;;;21.25;13.38;;;10.70;99.90;;;;;;7316465;32;20122;-63
2022/04/28 07:17:46;;;;;;;17.55;12.52;;;11.40;99.90;;;;;;7319749;32;20108;-64
2022/04/28 07:21:48;;;;;;;20.92;13.43;;;11.70;99.90;;;;;;7320049;32;20253;-63
2022/04/28 07:25:49;;;;;;;17.52;12.52;;;11.30;99.90;;;;;;7326431;32;20657;-62
2022/04/28 07:29:51;;;;;;;18.17;12.93;;;11.20;99.90;;;;;;7317990;32;20123;-62
2022/04/28 07:33:53;;;;;;;19.45;13.62;;;11.20;99.90;;;;;;7312133;32;20127;-62
2022/04/28 07:37:55;;;;;;;17.80;12.98;;;11.00;99.90;;;;;;7319240;32;20734;-62
2022/04/28 07:42:00;;;;;;;19.62;13.50;;;10.90;99.90;;;;;;7316077;32;20100;-62
2022/04/28 07:46:02;;;;;;;19.45;13.32;;;10.90;99.90;;;;;;7317463;32;20111;-63
2022/04/28 07:50:04;;;;;;;19.15;13.23;;;10.90;99.90;;;;;;7316348;32;20194;-61
2022/04/28 07:54:06;;;;;;;22.87;13.13;;;10.90;99.90;;;;;;7319024;32;20825;-63
2022/04/28 07:58:08;;;;;;;19.30;13.30;;;11.10;99.90;;;;;;7315763;32;20100;-62
2022/04/28 08:02:11;;;;;;;23.10;14.02;;;11.20;99.90;;;;;;7315391;32;20142;-64
2022/04/28 08:06:13;;;;;;;21.05;13.65;;;11.00;99.90;;;;;;7320642;32;20573;-63
2022/04/28 08:10:15;;;;;;;24.67;13.68;;;11.20;99.90;;;;;;7319495;32;20088;-64
2022/04/28 08:14:16;;;;;;;23.65;12.93;;;11.50;99.90;;;;;;7319794;32;20096;-65
2022/04/28 08:18:18;;;;;;;20.85;12.98;;;11.70;99.90;;;;;;7317943;32;20223;-63
2022/04/28 08:22:20;;;;;;;17.05;13.60;;;12.10;99.90;;;;;;7308956;32;20175;-62
2022/04/28 08:26:21;;;;;;;18.05;12.18;;;12.20;99.90;;;;;;7313524;32;20606;-64
2022/04/28 08:30:23;;;;;;;19.83;13.00;;;12.50;99.90;;;;;;7318748;32;20243;-63
2022/04/28 08:34:25;;;;;;;21.55;13.52;;;12.70;99.90;;;;;;7320383;32;20227;-64
2022/04/28 08:38:27;;;;;;;26.77;13.25;;;12.80;99.90;;;;;;7312896;32;20191;-65
2022/04/28 08:42:31;;;;;;;19.35;12.40;;;13.00;99.90;;;;;;7318982;32;20171;-64
2022/04/28 08:46:51;;;;;;;20.98;12.32;;;13.30;99.90;;;;;;7314333;32;20214;-64
2022/04/28 08:50:54;;;;;;;16.33;11.70;;;13.90;99.90;;;;;;7316756;32;20146;-64
2022/04/28 08:54:56;;;;;;;14.45;12.32;;;15.00;99.90;;;;;;7316494;32;20209;-63
2022/04/28 08:58:57;;;;;;;19.33;11.73;;;16.20;99.90;;;;;;7309236;32;20240;-65
2022/04/28 09:02:59;;;;;;;14.93;11.15;;;17.00;99.90;;;;;;7318612;32;20375;-64
2022/04/28 09:07:02;;;;;;;14.80;11.15;;;18.30;99.90;;;;;;7314229;32;20118;-64
2022/04/28 09:11:03;;;;;;;17.45;11.63;;;18.30;99.10;;;;;;7317387;32;20314;-64
2022/04/28 09:15:12;;;;;;;16.23;11.05;;;17.80;96.90;;;;;;7317649;32;20611;-64
2022/04/28 09:19:17;;;;;;;17.05;10.77;;;18.90;96.40;;;;;;7313538;32;20142;-65
2022/04/28 09:23:19;;;;;;;15.30;11.65;;;19.60;94.20;;;;;;7313980;32;20150;-63
2022/04/28 09:27:21;;;;;;;18.75;10.98;;;20.40;82.50;;;;;;7317761;32;20127;-60
2022/04/28 09:31:23;;;;;;;14.55;10.40;;;20.00;84.20;;;;;;7313103;32;20095;-62
2022/04/28 09:35:45;;;;;;;13.88;10.27;;;20.00;85.60;;;;;;7301479;32;20128;-58
2022/04/28 09:44:16;;;;;;;11.50;9.57;;;19.80;77.60;;;;;;7312729;32;20235;-58
2022/04/28 09:48:19;;;;;;;17.52;10.90;;;18.80;75.30;;;;;;7313360;32;20767;-64
2022/04/28 09:52:28;;;;;;;15.73;12.00;;;18.70;87.70;;;;;;7311862;32;20659;-63
2022/04/28 09:56:34;;;;;;;17.40;11.25;;;19.00;82.10;;;;;;7309861;32;22297;-64
2022/04/28 10:00:36;;;;;;;19.80;11.10;;;19.60;86.80;;;;;;7313285;32;20108;-57
2022/04/28 10:04:39;;;;;;;15.43;11.82;;;19.30;79.10;;;;;;7308468;32;20122;-65
2022/04/28 10:08:42;;;;;;;13.30;10.57;;;20.30;90.30;;;;;;7318448;32;20129;-64
2022/04/28 10:12:43;;;;;;;14.40;9.63;;;20.10;76.30;;;;;;7317856;32;20205;-65
2022/04/28 10:16:49;;;;;;;12.15;10.85;;;20.80;82.80;;;;;;7326561;32;20404;-65
2022/04/28 10:20:58;;;;;;;15.25;11.20;;;20.80;74.30;;;;;;7319101;32;20210;-64
2022/04/28 10:33:42;;;;;;;17.20;10.50;;;20.30;69.80;;;;;;7316194;32;20562;-65
2022/04/28 10:37:45;;;;;;;11.80;10.10;;;20.10;74.80;;;;;;7319205;32;20569;-64
2022/04/28 10:41:47;;;;;;;16.37;11.48;;;20.30;80.10;;;;;;7324712;32;20518;-63
2022/04/28 10:45:49;;;;;;;18.98;10.73;;;19.80;82.70;;;;;;7319762;32;20218;-64
2022/04/28 10:49:54;;;;;;;17.77;10.75;;;19.30;75.40;;;;;;7319925;32;20682;-64
2022/04/28 10:53:58;;;;;;;13.65;10.07;;;19.00;79.40;;;;;;7321970;32;20180;-64
2022/04/28 10:58:20;;;;;;;12.95;9.68;;;18.40;79.80;;;;;;7311296;32;20519;-64
2022/04/28 11:02:23;;;;;;;15.27;9.77;;;18.80;80.50;;;;;;7302927;32;20254;-64
2022/04/28 11:06:37;;;;;;;13.93;10.02;;;18.80;85.60;;;;;;7318485;32;20177;-64
2022/04/28 11:11:01;;;;;;;15.63;9.77;;;18.30;83.30;;;;;;7312995;32;20119;-64
2022/04/28 11:15:06;;;;;;;15.70;10.38;;;17.90;82.60;;;;;;7305789;32;20196;-63
2022/04/28 11:19:09;;;;;;;19.58;10.95;;;18.00;85.50;;;;;;7315899;32;20175;-62
2022/04/28 11:23:11;;;;;;;15.60;11.45;;;17.20;81.10;;;;;;7299615;32;20182;-63
2022/04/28 11:27:21;;;;;;;14.52;10.15;;;17.10;82.50;;;;;;7300204;32;20125;-60
2022/04/28 11:31:22;;;;;;;18.70;11.65;;;16.90;88.00;;;;;;7314020;32;20099;-60
2022/04/28 11:35:39;;;;;;;17.08;10.25;;;17.20;84.90;;;;;;7303677;32;20113;-64
2022/04/28 11:39:49;;;;;;;15.93;10.95;;;16.70;81.30;;;;;;7314790;32;20141;-59
2022/04/28 11:43:52;;;;;;;15.35;10.07;;;17.00;85.90;;;;;;7314213;32;20099;-58
2022/04/28 11:47:58;;;;;;;15.68;9.95;;;17.10;90.00;;;;;;7295943;32;20232;-59
2022/04/28 11:52:00;;;;;;;17.87;11.00;;;17.50;85.90;;;;;;7311890;32;20112;-59
2022/04/28 11:56:16;;;;;;;15.57;12.02;;;17.50;85.30;;;;;;7317329;32;20103;-58
2022/04/28 12:00:18;;;;;;;16.55;11.57;;;17.30;81.60;;;;;;7311067;32;20126;-64
2022/04/28 12:04:20;;;;;;;14.52;10.57;;;17.20;81.50;;;;;;7303243;32;20215;-57
2022/04/28 12:08:23;;;;;;;20.92;15.93;;;17.30;82.50;;;;;;7317692;32;20206;-64
2022/04/28 12:21:18;;;;;;;19.65;11.60;;;17.50;87.20;;;;;;7315251;32;20194;-65
2022/04/28 12:25:23;;;;;;;15.52;10.73;;;17.40;80.90;;;;;;7313370;32;20203;-64
2022/04/28 12:29:26;;;;;;;16.83;9.98;;;17.30;80.70;;;;;;7313579;32;20194;-64
2022/04/28 12:33:29;;;;;;;14.77;10.85;;;17.40;80.30;;;;;;7312829;32;20119;-64
2022/04/28 12:37:30;;;;;;;17.80;9.30;;;17.30;82.00;;;;;;7313076;32;20199;-62
2022/04/28 12:41:41;;;;;;;13.80;9.57;;;17.60;84.40;;;;;;7314027;32;20194;-64
2022/04/28 12:45:50;;;;;;;16.33;10.15;;;17.70;82.00;;;;;;7299421;32;20162;-64
2022/04/28 12:49:52;;;;;;;13.65;9.60;;;17.70;79.00;;;;;;7315449;32;20805;-64
2022/04/28 12:54:06;;;;;;;15.57;10.07;;;18.00;85.00;;;;;;7311236;32;20092;-65
2022/04/28 12:58:08;;;;;;;11.25;8.70;;;17.60;76.80;;;;;;7317973;32;20118;-64
2022/04/28 13:02:10;;;;;;;17.25;9.48;;;18.20;79.90;;;;;;7315282;32;20210;-63
2022/04/28 13:06:12;;;;;;;16.40;9.75;;;18.30;73.80;;;;;;7319109;32;20100;-64
2022/04/28 13:10:17;;;;;;;14.77;10.13;;;17.90;75.10;;;;;;7309805;32;20187;-64
2022/04/28 13:14:20;;;;;;;12.55;8.80;;;17.60;77.50;;;;;;7319953;32;20155;-65
2022/04/28 13:18:22;;;;;;;12.15;8.30;;;17.70;82.30;;;;;;7316956;32;20657;-64
2022/04/28 13:22:25;;;;;;;13.02;9.82;;;17.90;79.90;;;;;;7317570;32;20149;-65
2022/04/28 13:26:28;;;;;;;13.88;9.45;;;18.00;75.30;;;;;;7320487;32;20663;-58
2022/04/28 13:30:29;;;;;;;12.25;8.40;;;18.10;78.40;;;;;;7309441;32;20100;-59
2022/04/28 13:34:31;;;;;;;15.20;9.13;;;18.30;77.50;;;;;;7320093;32;20100;-58
2022/04/28 13:38:34;;;;;;;14.52;8.95;;;18.00;77.80;;;;;;7305014;32;20705;-65
2022/04/28 13:42:35;;;;;;;16.08;9.48;;;18.00;75.60;;;;;;7315363;32;20202;-64
2022/04/28 13:46:37;;;;;;;18.30;9.35;;;17.60;76.30;;;;;;7290903;32;20847;-64
2022/04/28 13:50:39;;;;;;;18.65;9.73;;;17.60;74.80;;;;;;7310921;32;20159;-65
2022/04/28 13:54:41;;;;;;;18.35;8.60;;;18.00;79.10;;;;;;7302431;32;20157;-66
2022/04/28 13:58:44;;;;;;;11.02;8.20;;;18.00;68.70;;;;;;7302254;32;20108;-64
2022/04/28 14:02:46;;;;;;;13.02;8.10;;;17.90;69.00;;;;;;7296319;32;20126;-65
2022/04/28 14:06:48;;;;;;;13.98;8.00;;;17.80;72.90;;;;;;7290038;32;20104;-65
2022/04/28 14:10:50;;;;;;;12.65;7.47;;;17.90;71.30;;;;;;7314299;32;20130;-66
2022/04/28 14:14:52;;;;;;;14.25;8.75;;;18.30;72.60;;;;;;7311764;32;20488;-66
2022/04/28 14:18:54;;;;;;;16.55;10.48;;;18.00;72.70;;;;;;7319252;32;20455;-65
2022/04/28 14:22:56;;;;;;;14.90;10.02;;;17.90;71.00;;;;;;7308602;32;20191;-66
2022/04/28 14:26:57;;;;;;;12.37;8.68;;;17.90;69.30;;;;;;7312122;32;20551;-65
2022/04/28 14:31:03;;;;;;;18.12;9.82;;;18.10;73.00;;;;;;7312209;32;20095;-65
2022/04/28 14:35:24;;;;;;;20.15;9.07;;;18.20;73.20;;;;;;7318444;32;22045;-66
2022/04/28 14:39:26;;;;;;;14.30;9.10;;;18.30;75.30;;;;;;7316714;32;22209;-66
2022/04/28 14:43:28;;;;;;;15.48;9.93;;;18.00;72.70;;;;;;7315345;32;20100;-65
2022/04/28 14:47:29;;;;;;;17.67;11.45;;;17.90;72.60;;;;;;7312500;32;20138;-64
2022/04/28 14:55:52;;;;;;;18.27;9.18;;;17.70;75.50;;;;;;7318576;32;20446;-65
2022/04/28 14:59:55;;;;;;;14.38;8.75;;;17.90;74.70;;;;;;7321337;32;20099;-65
2022/04/28 15:04:02;;;;;;;;;;;17.90;76.10;;;;;;7324300;32;20099;-64
2022/04/28 15:08:04;;;;;;;12.23;9.00;;;17.90;75.00;;;;;;7303216;32;20027;-65
2022/04/28 15:12:06;;;;;;;14.40;9.05;;;17.80;76.40;;;;;;7321151;32;20581;-67
2022/04/28 15:16:08;;;;;;;14.30;9.98;;;17.60;75.20;;;;;;7321493;32;20104;-65
2022/04/28 15:20:12;;;;;;;14.85;9.00;;;17.70;76.10;;;;;;7321447;32;20218;-65
2022/04/28 15:24:14;;;;;;;18.25;10.00;;;17.70;77.70;;;;;;7316150;32;20162;-64
2022/04/28 15:28:15;;;;;;;12.95;8.70;;;17.60;76.00;;;;;;7314256;32;20762;-65
2022/04/28 15:32:17;;;;;;;17.58;9.10;;;17.50;80.50;;;;;;7322317;32;20203;-65
2022/04/28 15:36:19;;;;;;;13.77;7.62;;;17.30;76.50;;;;;;7317057;32;20091;-65
2022/04/28 15:40:20;;;;;;;12.00;7.85;;;17.20;74.70;;;;;;7316946;32;20249;-66
2022/04/28 15:44:22;;;;;;;15.55;7.45;;;17.30;76.10;;;;;;7316319;32;20597;-66
2022/04/28 15:48:24;;;;;;;20.02;12.95;;;17.30;75.70;;;;;;7303933;32;20523;-66
2022/04/28 15:52:26;;;;;;;13.40;7.75;;;17.50;75.60;;;;;;7320427;32;20103;-67
2022/04/28 15:56:27;;;;;;;11.27;7.75;;;17.60;76.60;;;;;;7318699;32;20121;-65
2022/04/28 16:00:30;;;;;;;12.70;8.20;;;17.50;75.50;;;;;;7317272;32;20206;-64
2022/04/28 16:04:32;;;;;;;17.15;8.13;;;17.20;73.30;;;;;;7318156;32;20322;-68
2022/04/28 16:08:34;;;;;;;16.45;7.78;;;17.40;73.50;;;;;;7316601;32;20134;-65
2022/04/28 16:12:36;;;;;;;15.40;7.65;;;17.40;73.30;;;;;;7323014;32;20185;-67
2022/04/28 16:16:38;;;;;;;12.65;7.53;;;17.30;74.70;;;;;;7319958;32;20973;-66
2022/04/28 16:20:43;;;;;;;16.33;7.03;;;17.20;75.60;;;;;;7318922;32;20315;-66
2022/04/28 16:24:44;;;;;;;15.40;8.02;;;17.10;75.50;;;;;;7322852;32;20135;-66
2022/04/28 16:28:46;;;;;;;13.68;8.13;;;16.90;76.80;;;;;;7315871;32;20218;-65
2022/04/28 16:32:48;;;;;;;16.35;7.30;;;16.70;79.30;;;;;;7319705;32;20310;-65
2022/04/28 16:36:49;;;;;;;13.70;7.43;;;16.70;80.70;;;;;;7317244;32;20816;-66
2022/04/28 16:40:51;;;;;;;15.35;8.13;;;16.80;81.00;;;;;;7313639;32;20194;-66
2022/04/28 16:44:53;;;;;;;15.48;7.07;;;16.70;80.40;;;;;;7315419;32;20096;-66
2022/04/28 16:48:54;;;;;;;12.80;8.52;;;16.70;82.10;;;;;;7315283;32;20150;-64
2022/04/28 16:53:16;;;;;;;11.52;7.50;;;16.40;80.10;;;;;;7314127;32;20205;-66
2022/04/28 16:57:18;;;;;;;17.20;7.32;;;16.20;83.00;;;;;;7314760;32;20104;-66
2022/04/28 17:01:19;;;;;;;11.93;7.12;;;16.10;83.80;;;;;;7313226;32;20222;-66
2022/04/28 17:05:23;;;;;;;13.43;7.90;;;16.00;83.00;;;;;;7316527;32;20191;-67
2022/04/28 17:09:26;;;;;;;12.50;7.25;;;15.90;82.90;;;;;;7314536;32;20231;-65
2022/04/28 17:13:28;;;;;;;14.30;7.00;;;15.80;83.30;;;;;;7318258;32;20480;-67
2022/04/28 17:17:29;;;;;;;12.10;6.68;;;15.60;83.80;;;;;;7315406;32;20463;-66
2022/04/28 17:21:31;;;;;;;14.05;6.75;;;15.60;86.60;;;;;;7316617;32;20724;-67
2022/04/28 17:25:33;;;;;;;11.88;6.40;;;15.40;87.60;;;;;;7317918;32;20218;-66
2022/04/28 17:29:35;;;;;;;10.80;6.50;;;15.40;90.10;;;;;;7311660;32;20103;-64
2022/04/28 17:33:37;;;;;;;13.48;6.82;;;15.40;88.60;;;;;;7311387;32;20575;-66
2022/04/28 17:37:39;;;;;;;13.88;6.87;;;15.40;88.30;;;;;;7313617;32;20377;-67
2022/04/28 17:41:40;;;;;;;12.95;6.78;;;15.30;90.00;;;;;;7315801;32;20532;-66
2022/04/28 17:45:42;;;;;;;11.15;6.53;;;15.30;89.80;;;;;;7308723;32;20153;-66
2022/04/28 17:49:44;;;;;;;10.00;5.78;;;15.20;90.20;;;;;;7307024;32;20912;-65
2022/04/28 17:53:46;;;;;;;9.93;5.95;;;15.10;91.00;;;;;;7318423;32;20621;-67
2022/04/28 18:02:09;;;;;;;12.55;6.65;;;15.00;91.10;;;;;;7319389;32;20141;-65
2022/04/28 18:06:12;;;;;;;11.70;5.65;;;14.80;93.50;;;;;;7315254;32;20107;-67
2022/04/28 18:10:14;;;;;;;10.30;5.60;;;14.50;94.50;;;;;;7312289;32;20167;-66
2022/04/28 18:14:15;;;;;;;14.25;5.70;;;14.40;94.20;;;;;;7315961;32;20792;-67
2022/04/28 18:18:18;;;;;;;8.25;4.87;;;14.30;94.30;;;;;;7308038;32;20244;-63
2022/04/28 18:22:20;;;;;;;12.10;5.57;;;14.10;96.50;;;;;;7313108;32;20121;-65
2022/04/28 18:26:22;;;;;;;10.40;5.35;;;14.00;96.70;;;;;;7309468;32;20794;-68
2022/04/28 18:30:23;;;;;;;12.32;5.20;;;13.70;99.90;;;;;;7313322;32;20179;-66
2022/04/28 18:34:25;;;;;;;13.88;5.30;;;13.60;99.90;;;;;;7308348;32;20104;-66
2022/04/28 18:47:08;;;;;;;14.35;4.85;;;13.00;99.90;;;;;;7322482;32;20126;-66
2022/04/28 18:51:10;;;;;;;12.18;4.60;;;12.70;99.90;;;;;;7322178;32;20096;-65
2022/04/28 18:55:13;;;;;;;13.48;4.95;;;12.40;99.90;;;;;;7323349;32;20149;-65
2022/04/28 18:59:16;;;;;;;12.10;4.97;;;12.20;99.90;;;;;;7321440;32;20123;-64
2022/04/28 19:03:17;;;;;;;15.70;5.30;;;11.90;99.90;;;;;;7317224;32;20342;-63
2022/04/28 19:07:19;;;;;;;13.20;5.10;;;11.70;99.90;;;;;;7322314;32;20199;-63
2022/04/28 19:11:22;;;;;;;12.60;4.85;;;11.40;99.90;;;;;;7322292;32;20574;-64
2022/04/28 19:15:24;;;;;;;12.57;5.00;;;11.20;99.90;;;;;;7321582;32;20615;-65
2022/04/28 19:19:26;;;;;;;13.02;5.37;;;11.10;99.90;;;;;;7324065;32;20138;-65
2022/04/28 19:23:27;;;;;;;11.77;5.00;;;10.90;99.90;;;;;;7324286;32;20248;-65
2022/04/28 19:27:29;;;;;;;13.32;5.85;;;10.70;99.90;;;;;;7310686;32;20213;-62
2022/04/28 19:31:31;;;;;;;14.13;5.65;;;10.60;99.90;;;;;;7320627;32;20123;-64
2022/04/28 19:35:33;;;;;;;12.15;5.43;;;10.40;99.90;;;;;;7321213;32;20198;-64
2022/04/28 19:39:37;;;;;;;11.60;5.00;;;10.20;99.90;;;;;;7316972;32;20107;-63
2022/04/28 19:43:39;;;;;;;9.70;5.22;;;10.10;99.90;;;;;;7320707;32;20463;-64
2022/04/28 19:47:40;;;;;;;12.02;5.30;;;9.90;99.90;;;;;;7321472;32;20100;-63
2022/04/28 19:51:45;;;;;;;10.77;5.78;;;9.80;99.90;;;;;;7322507;32;20108;-64
2022/04/28 19:55:47;;;;;;;12.93;5.62;;;9.70;99.90;;;;;;7318147;32;20096;-63
2022/04/28 19:59:51;;;;;;;11.93;5.87;;;9.60;99.90;;;;;;7320283;32;20121;-66
2022/04/28 20:03:54;;;;;;;9.90;5.80;;;9.60;99.90;;;;;;7322663;32;20182;-64
2022/04/28 20:07:56;;;;;;;13.52;5.95;;;9.50;99.90;;;;;;7320710;32;20127;-64
2022/04/28 20:11:58;;;;;;;14.90;5.93;;;9.30;99.90;;;;;;7321212;32;20195;-65
2022/04/28 20:16:00;;;;;;;9.52;5.57;;;9.20;99.90;;;;;;7312437;32;20187;-62
2022/04/28 20:20:02;;;;;;;10.15;6.35;;;9.10;99.90;;;;;;7316157;32;20410;-64
2022/04/28 20:24:05;;;;;;;12.65;5.87;;;9.00;99.90;;;;;;7322314;32;20099;-62
2022/04/28 20:28:08;;;;;;;13.13;6.12;;;8.90;99.90;;;;;;7316452;32;20210;-63
2022/04/28 20:32:10;;;;;;;12.90;6.12;;;8.80;99.90;;;;;;7315968;32;20769;-62
2022/04/28 20:36:14;;;;;;;12.18;6.45;;;8.80;99.90;;;;;;7316238;32;20145;-63
2022/04/28 20:40:16;;;;;;;11.88;6.22;;;8.70;99.90;;;;;;7313934;32;20279;-63
2022/04/28 20:44:19;;;;;;;13.65;6.47;;;8.60;99.90;;;;;;7315535;32;20611;-63
2022/04/28 20:48:21;;;;;;;14.23;6.18;;;8.60;99.90;;;;;;7312659;32;20107;-64
2022/04/28 20:52:23;;;;;;;11.57;6.80;;;8.50;99.90;;;;;;7310599;32;20545;-65
2022/04/28 20:56:25;;;;;;;9.85;5.90;;;8.40;99.90;;;;;;7310967;32;20111;-63
2022/04/28 21:00:32;;;;;;;13.82;7.10;;;8.30;99.90;;;;;;7313692;32;20244;-64
2022/04/28 21:04:34;;;;;;;14.73;6.87;;;8.30;99.90;;;;;;7315711;32;20119;-64
2022/04/28 21:08:36;;;;;;;9.50;6.18;;;8.20;99.90;;;;;;7307588;32;20104;-63
2022/04/28 21:12:44;;;;;;;12.23;7.00;;;8.10;99.90;;;;;;7309720;32;20128;-64
2022/04/28 21:16:46;;;;;;;11.45;6.05;;;8.10;99.90;;;;;;7312094;32;20417;-64
2022/04/28 21:20:48;;;;;;;12.43;6.45;;;8.10;99.90;;;;;;7316470;32;20183;-65
2022/04/28 21:24:49;;;;;;;15.18;6.10;;;8.00;99.90;;;;;;7312910;32;20118;-64
2022/04/28 21:28:52;;;;;;;10.80;6.60;;;8.00;99.90;;;;;;7309052;32;20779;-65
2022/04/28 21:32:55;;;;;;;13.38;6.90;;;8.00;99.90;;;;;;7307962;32;20206;-65
2022/04/28 21:36:56;;;;;;;9.70;6.07;;;7.90;99.90;;;;;;7305846;32;20132;-64
2022/04/28 21:40:58;;;;;;;13.75;6.78;;;7.90;99.90;;;;;;7314394;32;20716;-65
2022/04/28 21:45:00;;;;;;;13.62;7.12;;;7.80;99.90;;;;;;7318852;32;20131;-64
2022/04/28 21:49:02;;;;;;;10.70;6.82;;;7.80;99.90;;;;;;7313546;32;20134;-63
2022/04/28 21:53:04;;;;;;;13.85;7.10;;;7.70;99.90;;;;;;7314683;32;20765;-62
2022/04/28 21:57:06;;;;;;;15.45;6.68;;;7.80;99.90;;;;;;7315471;32;20100;-63